Superferry II — SWKV — position and weather

sailwx.info

Track history (hours):
 
Tides and Currents Weather Stations Pressure Air Temp Water Temp Dewpoint Dewpoint Depression Visibility Wind Speed Wind Dir Waves Ship Positions

Superferry II

Last reported at 2016-Jul-27 21:28 UTC. Time now 2016-Jul-28 04:45 UTC.
Position N 37°09' E 025°13'.

Length 122 m; draft 4.7 m.

Type: Passenger vessel. MMSI: 237001000.

Date/timePositionNaut miles runAvg speedWind from/ knotsBaromVisibWave heightAir tempDewpointWater temp
2016-Jul-27 21:28N 37°09' E 025°13'6 6.8
2016-Jul-27 20:33N 37°09' E 025°21'1818.5
2016-Jul-27 19:33N 37°27' E 025°18'9 8.5
2016-Jul-27 18:33N 37°32' E 025°09'1511.8
2016-Jul-27 17:17N 37°42' E 024°55'3214.5
2016-Jul-27 15:06N 37°57' E 024°20'1018.6
2016-Jul-27 14:33N 38°00' E 024°07'5 1.7
2016-Jul-27 11:33N 38°01' E 024°01'5316.0
2016-Jul-27 08:15N 37°37' E 025°01'912.1
2016-Jul-27 07:33N 37°32' E 025°09'9 9.2
2016-Jul-27 06:33N 37°26' E 025°17'1817.8
2016-Jul-27 05:33N 37°08' E 025°21'3 0.3
2016-Jul-26 20:33N 37°09' E 025°18'7 7.3
2016-Jul-26 19:34N 37°17' E 025°19'1211.5
2016-Jul-26 18:33N 37°28' E 025°16'6015.1
2016-Jul-26 14:33N 37°59' E 024°11'8 2.6
2016-Jul-26 11:32N 38°01' E 024°01'5115.9
2016-Jul-26 08:19N 37°38' E 024°59'1013.3
2016-Jul-26 07:33N 37°32' E 025°09'9 9.1
2016-Jul-26 06:33N 37°26' E 025°17'1817.9
2016-Jul-26 05:33N 37°08' E 025°21'2 0.2
2016-Jul-25 20:33N 37°09' E 025°19'7 7.2
2016-Jul-25 19:34N 37°16' E 025°19'1211.6
2016-Jul-25 18:33N 37°28' E 025°19'1212.1
2016-Jul-25 17:33N 37°33' E 025°06'5015.9
2016-Jul-25 14:23N 37°59' E 024°11'8 2.7
2016-Jul-25 11:30N 38°01' E 024°02'5015.6
2016-Jul-25 08:16N 37°39' E 024°59'1114.8
2016-Jul-25 07:33N 37°32' E 025°09'9 8.6
2016-Jul-25 06:34N 37°27' E 025°18'1918.5
2016-Jul-25 05:34N 37°08' E 025°21'7 1.7
2016-Jul-25 01:15N 37°09' E 025°12'811.2
2016-Jul-25 00:33N 37°07' E 025°22'1918.5
2016-Jul-24 23:33N 37°25' E 025°17'10 9.8
2016-Jul-24 22:33N 37°32' E 025°09'3517.6
2016-Jul-24 20:34N 37°49' E 024°30'1918.9
2016-Jul-24 19:34N 37°58' E 024°10'8 7.5
2016-Jul-24 18:33N 38°01' E 024°01'1716.6
2016-Jul-24 17:33N 37°57' E 024°21'4214.0
2016-Jul-24 14:33N 37°34' E 025°06'1111.0
2016-Jul-24 13:33N 37°28' E 025°18'10 9.9
2016-Jul-24 12:33N 37°18' E 025°18'1111.4
2016-Jul-24 11:34N 37°07' E 025°21'0 0.0
2016-Jul-23 20:34N 37°07' E 025°21'1312.6
2016-Jul-23 19:33N 37°19' E 025°18'9 8.6
2016-Jul-23 18:33N 37°28' E 025°17'2215.7
2016-Jul-23 17:10N 37°41' E 024°55'3814.5
2016-Jul-23 14:33N 37°59' E 024°13'9 3.1
2016-Jul-23 11:33N 38°01' E 024°01'4915.8
2016-Jul-23 08:27N 37°40' E 024°57'1213.8
2016-Jul-23 07:33N 37°32' E 025°09'9 9.0
2016-Jul-23 06:33N 37°26' E 025°17'20 2.1
2016-Jul-22 21:16N 37°07' E 025°09'1115.0
2016-Jul-22 20:34N 37°06' E 025°22'1313.4
2016-Jul-22 19:33N 37°19' E 025°18'1110.6
2016-Jul-22 18:33N 37°30' E 025°14'1614.2
2016-Jul-22 17:25N 37°39' E 024°58'4315.0
2016-Jul-22 14:33N 37°59' E 024°10'7 2.2
2016-Jul-22 11:30N 38°01' E 024°02'5015.9
2016-Jul-22 08:19N 37°38' E 024°59'1114.0
2016-Jul-22 07:33N 37°32' E 025°09'2612.9
2016-Jul-22 05:33N 37°08' E 025°21'10 1.2
2016-Jul-21 21:14N 37°07' E 025°09'1015.6
2016-Jul-21 20:33N 37°07' E 025°22'1414.2
2016-Jul-21 19:33N 37°21' E 025°18'9 8.6
2016-Jul-21 18:34N 37°29' E 025°15'5914.7
2016-Jul-21 14:33N 37°59' E 024°11'7 2.4
2016-Jul-21 11:25N 38°01' E 024°02'5116.1
2016-Jul-21 08:14N 37°38' E 024°60'913.9
2016-Jul-21 07:34N 37°32' E 025°09'9 9.2
2016-Jul-21 06:33N 37°25' E 025°17'1818.1
2016-Jul-21 05:33N 37°08' E 025°22'2 0.2
2016-Jul-20 20:34N 37°08' E 025°20'8 8.0
2016-Jul-20 19:33N 37°16' E 025°19'1111.4
2016-Jul-20 18:33N 37°28' E 025°19'6115.1
2016-Jul-20 14:32N 37°59' E 024°13'9 2.9
2016-Jul-20 11:32N 38°01' E 024°02'4815.7
2016-Jul-20 08:30N 37°40' E 024°57'1313.7
2016-Jul-20 07:33N 37°32' E 025°09'10 9.7
2016-Jul-20 06:34N 37°25' E 025°17'1818.1
2016-Jul-20 05:34N 37°07' E 025°22'8 1.0
2016-Jul-19 21:11N 37°09' E 025°12'914.2
2016-Jul-19 20:33N 37°06' E 025°22'1615.5
2016-Jul-19 19:33N 37°21' E 025°18'8 7.6
2016-Jul-19 18:33N 37°29' E 025°15'5914.8
2016-Jul-19 14:33N 37°59' E 024°11'8 2.6
2016-Jul-19 11:28N 38°01' E 024°01'5316.1
2016-Jul-19 08:11N 37°37' E 025°01'813.5
2016-Jul-19 07:34N 37°32' E 025°09'25 2.3
2016-Jul-18 20:34N 37°09' E 025°19'8 7.9
2016-Jul-18 19:34N 37°17' E 025°19'1111.1
2016-Jul-18 18:33N 37°28' E 025°18'6015.0
2016-Jul-18 14:32N 37°59' E 024°13'6 2.1
2016-Jul-18 11:34N 38°00' E 024°05'4915.7
2016-Jul-18 08:26N 37°38' E 024°60'1112.4
2016-Jul-18 07:33N 37°31' E 025°11'8 8.3
2016-Jul-18 06:33N 37°25' E 025°17'1817.8
2016-Jul-18 05:33N 37°07' E 025°22'8 1.8
2016-Jul-18 01:17N 37°09' E 025°13'7 9.8
2016-Jul-18 00:33N 37°08' E 025°21'1919.0
2016-Jul-17 23:33N 37°26' E 025°17'9 8.8
2016-Jul-17 22:33N 37°32' E 025°09'1716.3
2016-Jul-17 21:32N 37°40' E 024°50'  
Track history (hours):
 
Tides and Currents Weather Stations Pressure Air Temp Water Temp Dewpoint Dewpoint Depression Visibility Wind Speed Wind Dir Waves Ship Positions

Superferry II

Last reported at 2016-Jul-27 21:28 UTC. Time now 2016-Jul-28 04:46 UTC.
Position N 37°09' E 025°13'.

Length 122 m; draft 4.7 m.

Type: Passenger vessel. MMSI: 237001000.

Date/timePositionNaut miles runAvg speedWind from/ knotsBaromVisibWave heightAir tempDewpointWater temp
2016-Jul-27 21:28N 37°09' E 025°13'6 6.8
2016-Jul-27 20:33N 37°09' E 025°21'1818.5
2016-Jul-27 19:33N 37°27' E 025°18'9 8.5
2016-Jul-27 18:33N 37°32' E 025°09'1511.8
2016-Jul-27 17:17N 37°42' E 024°55'3214.5
2016-Jul-27 15:06N 37°57' E 024°20'1018.6
2016-Jul-27 14:33N 38°00' E 024°07'5 1.7
2016-Jul-27 11:33N 38°01' E 024°01'5316.0
2016-Jul-27 08:15N 37°37' E 025°01'912.1
2016-Jul-27 07:33N 37°32' E 025°09'9 9.2
2016-Jul-27 06:33N 37°26' E 025°17'1817.8
2016-Jul-27 05:33N 37°08' E 025°21'3 0.3
2016-Jul-26 20:33N 37°09' E 025°18'7 7.3
2016-Jul-26 19:34N 37°17' E 025°19'1211.5
2016-Jul-26 18:33N 37°28' E 025°16'6015.1
2016-Jul-26 14:33N 37°59' E 024°11'8 2.6
2016-Jul-26 11:32N 38°01' E 024°01'5115.9
2016-Jul-26 08:19N 37°38' E 024°59'1013.3
2016-Jul-26 07:33N 37°32' E 025°09'9 9.1
2016-Jul-26 06:33N 37°26' E 025°17'1817.9
2016-Jul-26 05:33N 37°08' E 025°21'2 0.2
2016-Jul-25 20:33N 37°09' E 025°19'7 7.2
2016-Jul-25 19:34N 37°16' E 025°19'1211.6
2016-Jul-25 18:33N 37°28' E 025°19'1212.1
2016-Jul-25 17:33N 37°33' E 025°06'5015.9
2016-Jul-25 14:23N 37°59' E 024°11'8 2.7
2016-Jul-25 11:30N 38°01' E 024°02'5015.6
2016-Jul-25 08:16N 37°39' E 024°59'1114.8
2016-Jul-25 07:33N 37°32' E 025°09'9 8.6
2016-Jul-25 06:34N 37°27' E 025°18'1918.5
2016-Jul-25 05:34N 37°08' E 025°21'7 1.7
2016-Jul-25 01:15N 37°09' E 025°12'811.2
2016-Jul-25 00:33N 37°07' E 025°22'1918.5
2016-Jul-24 23:33N 37°25' E 025°17'10 9.8
2016-Jul-24 22:33N 37°32' E 025°09'3517.6
2016-Jul-24 20:34N 37°49' E 024°30'1918.9
2016-Jul-24 19:34N 37°58' E 024°10'8 7.5
2016-Jul-24 18:33N 38°01' E 024°01'1716.6
2016-Jul-24 17:33N 37°57' E 024°21'4214.0
2016-Jul-24 14:33N 37°34' E 025°06'1111.0
2016-Jul-24 13:33N 37°28' E 025°18'10 9.9
2016-Jul-24 12:33N 37°18' E 025°18'1111.4
2016-Jul-24 11:34N 37°07' E 025°21'0 0.0
2016-Jul-23 20:34N 37°07' E 025°21'1312.6
2016-Jul-23 19:33N 37°19' E 025°18'9 8.6
2016-Jul-23 18:33N 37°28' E 025°17'2215.7
2016-Jul-23 17:10N 37°41' E 024°55'3814.5
2016-Jul-23 14:33N 37°59' E 024°13'9 3.1
2016-Jul-23 11:33N 38°01' E 024°01'4915.8
2016-Jul-23 08:27N 37°40' E 024°57'1213.8
2016-Jul-23 07:33N 37°32' E 025°09'9 9.0
2016-Jul-23 06:33N 37°26' E 025°17'20 2.1
2016-Jul-22 21:16N 37°07' E 025°09'1115.0
2016-Jul-22 20:34N 37°06' E 025°22'1313.4
2016-Jul-22 19:33N 37°19' E 025°18'1110.6
2016-Jul-22 18:33N 37°30' E 025°14'1614.2
2016-Jul-22 17:25N 37°39' E 024°58'4315.0
2016-Jul-22 14:33N 37°59' E 024°10'7 2.2
2016-Jul-22 11:30N 38°01' E 024°02'5015.9
2016-Jul-22 08:19N 37°38' E 024°59'1114.0
2016-Jul-22 07:33N 37°32' E 025°09'2612.9
2016-Jul-22 05:33N 37°08' E 025°21'10 1.2
2016-Jul-21 21:14N 37°07' E 025°09'1015.6
2016-Jul-21 20:33N 37°07' E 025°22'1414.2
2016-Jul-21 19:33N 37°21' E 025°18'9 8.6
2016-Jul-21 18:34N 37°29' E 025°15'5914.7
2016-Jul-21 14:33N 37°59' E 024°11'7 2.4
2016-Jul-21 11:25N 38°01' E 024°02'5116.1
2016-Jul-21 08:14N 37°38' E 024°60'913.9
2016-Jul-21 07:34N 37°32' E 025°09'9 9.2
2016-Jul-21 06:33N 37°25' E 025°17'1818.1
2016-Jul-21 05:33N 37°08' E 025°22'2 0.2
2016-Jul-20 20:34N 37°08' E 025°20'8 8.0
2016-Jul-20 19:33N 37°16' E 025°19'1111.4
2016-Jul-20 18:33N 37°28' E 025°19'6115.1
2016-Jul-20 14:32N 37°59' E 024°13'9 2.9
2016-Jul-20 11:32N 38°01' E 024°02'4815.7
2016-Jul-20 08:30N 37°40' E 024°57'1313.7
2016-Jul-20 07:33N 37°32' E 025°09'10 9.7
2016-Jul-20 06:34N 37°25' E 025°17'1818.1
2016-Jul-20 05:34N 37°07' E 025°22'8 1.0
2016-Jul-19 21:11N 37°09' E 025°12'914.2
2016-Jul-19 20:33N 37°06' E 025°22'1615.5
2016-Jul-19 19:33N 37°21' E 025°18'8 7.6
2016-Jul-19 18:33N 37°29' E 025°15'5914.8
2016-Jul-19 14:33N 37°59' E 024°11'8 2.6
2016-Jul-19 11:28N 38°01' E 024°01'5316.1
2016-Jul-19 08:11N 37°37' E 025°01'813.5
2016-Jul-19 07:34N 37°32' E 025°09'25 2.3
2016-Jul-18 20:34N 37°09' E 025°19'8 7.9
2016-Jul-18 19:34N 37°17' E 025°19'1111.1
2016-Jul-18 18:33N 37°28' E 025°18'6015.0
2016-Jul-18 14:32N 37°59' E 024°13'6 2.1
2016-Jul-18 11:34N 38°00' E 024°05'4915.7
2016-Jul-18 08:26N 37°38' E 024°60'1112.4
2016-Jul-18 07:33N 37°31' E 025°11'8 8.3
2016-Jul-18 06:33N 37°25' E 025°17'1817.8
2016-Jul-18 05:33N 37°07' E 025°22'8 1.8
2016-Jul-18 01:17N 37°09' E 025°13'7 9.8
2016-Jul-18 00:33N 37°08' E 025°21'1919.0
2016-Jul-17 23:33N 37°26' E 025°17'9 8.8
2016-Jul-17 22:33N 37°32' E 025°09'1716.3
2016-Jul-17 21:32N 37°40' E 024°50'  

Dump ship's entire track history